Lana Louise — WDC2702 — position and weather

sailwx.info

Track history (hours):
 
Tides and Currents Weather Stations Pressure Air Temp Water Temp Dewpoint Dewpoint Depression Visibility Wind Speed Wind Dir Waves Ship Positions

Lana Louise

Owner: Kirby Inland Marine LP, Houston, TX. More information available from US FCC via Universal Licensing System and Coast Guard Vessel Documentation Center.

Last reported at 2018-May-27 14:19 UTC. Time now 2018-May-28 01:36 UTC.
Position N 29°45' W 095°06'.

Length 97 m; draft 2.6 m.

Type: . MMSI: 366996580.

Date/timePositionNaut miles runAvg speedWind from/ knotsBaromVisibWave heightAir tempDewpointWater temp
2018-May-27 14:19N 29°45' W 095°06'0 0.0
2018-May-27 13:39N 29°45' W 095°06'0 0.2
2018-May-27 13:27N 29°45' W 095°06'2 3.1
2018-May-27 12:49N 29°45' W 095°04'4 4.5
2018-May-27 12:00N 29°42' W 095°01'3 5.2
2018-May-27 11:31N 29°41' W 094°59'3 5.3
2018-May-27 11:00N 29°38' W 094°58'3 5.5
2018-May-27 10:30N 29°36' W 094°57'3 5.7
2018-May-27 10:01N 29°33' W 094°55'3 5.8
2018-May-27 09:30N 29°31' W 094°53'9 6.4
2018-May-27 08:01N 29°22' W 094°48'1 6.7
2018-May-27 07:55N 29°22' W 094°48'2 5.4
2018-May-27 07:29N 29°21' W 094°45'1 0.9
2018-May-27 06:36N 29°21' W 094°44'0 0.0
2018-May-26 22:57N 29°21' W 094°44'1 1.6
2018-May-26 22:29N 29°21' W 094°44'0 0.0
2018-May-26 17:26N 29°21' W 094°44'0 0.0
2018-May-26 16:41N 29°21' W 094°44'0 0.0
2018-May-26 16:23N 29°21' W 094°44'0 0.0
2018-May-26 15:59N 29°21' W 094°44'0 0.0
2018-May-26 15:29N 29°21' W 094°44'0 0.0
2018-May-26 14:59N 29°21' W 094°44'0 0.6
2018-May-26 14:24N 29°21' W 094°44'2 5.2
2018-May-26 13:59N 29°21' W 094°46'2 5.1
2018-May-26 13:30N 29°23' W 094°49'6 4.8
2018-May-26 12:10N 29°29' W 094°52'1 4.5
2018-May-26 11:58N 29°30' W 094°52'2 4.6
2018-May-26 11:29N 29°31' W 094°53'2 4.5
2018-May-26 11:00N 29°33' W 094°55'2 4.8
2018-May-26 10:30N 29°35' W 094°56'2 4.8
2018-May-26 10:00N 29°37' W 094°58'2 4.7
2018-May-26 09:30N 29°40' W 094°58'2 4.6
2018-May-26 09:00N 29°42' W 094°60'4 4.3
2018-May-26 08:10N 29°44' W 095°03'3 0.2
2018-May-25 19:58N 29°45' W 095°06'0 0.0
2018-May-25 05:05N 29°45' W 095°06'0 0.1
2018-May-25 04:44N 29°45' W 095°06'2 3.5
2018-May-25 04:14N 29°47' W 095°05'2 0.4
2018-May-24 22:53N 29°46' W 095°07'1 0.0
2018-May-23 19:17N 29°46' W 095°06'0 0.0
2018-May-23 18:59N 29°46' W 095°06'2 0.4
2018-May-23 13:10N 29°44' W 095°08'1 5.2
2018-May-23 12:56N 29°44' W 095°09'1 0.2
2018-May-23 06:18N 29°45' W 095°10'0 0.1
2018-May-23 05:49N 29°45' W 095°10'1 1.7
2018-May-23 05:26N 29°45' W 095°11'1 1.6
2018-May-23 04:49N 29°45' W 095°10'8 1.0
2018-May-22 20:56N 29°42' W 095°01'3 5.8
2018-May-22 20:30N 29°41' W 094°59'3 5.4
2018-May-22 20:00N 29°38' W 094°58'2 3.3
2018-May-22 19:30N 29°37' W 094°59'1 2.7
2018-May-22 19:00N 29°37' W 095°00'0 0.0
2018-May-22 18:29N 29°37' W 095°00'0 0.0
2018-May-22 17:59N 29°37' W 095°00'0 0.0
2018-May-22 17:29N 29°37' W 095°00'0 0.0
2018-May-22 16:59N 29°37' W 095°00'0 0.0
2018-May-22 16:29N 29°37' W 095°00'0 0.0
2018-May-22 15:59N 29°37' W 095°00'0 0.0
2018-May-22 15:29N 29°37' W 095°00'0 0.0
2018-May-22 14:59N 29°37' W 095°00'0 0.0
2018-May-22 14:29N 29°37' W 095°00'0 0.0
2018-May-22 13:56N 29°37' W 095°00'0 0.0
2018-May-22 13:29N 29°37' W 095°00'0 0.0
2018-May-22 12:59N 29°37' W 095°00'0 0.0
2018-May-22 12:29N 29°37' W 095°00'0 0.0
2018-May-22 11:59N 29°37' W 095°00'0 0.0
2018-May-22 11:29N 29°37' W 095°00'0 0.0
2018-May-22 10:53N 29°37' W 095°00'0 0.0
2018-May-22 10:29N 29°37' W 095°00'0 0.0
2018-May-22 09:59N 29°37' W 095°00'0 0.0
2018-May-22 09:29N 29°37' W 095°00'0 0.0
2018-May-22 08:59N 29°37' W 095°00'0 0.0
2018-May-22 08:29N 29°37' W 095°00'0 0.0
2018-May-22 07:59N 29°37' W 095°00'0 0.0
2018-May-22 07:29N 29°37' W 095°00'0 0.0
2018-May-22 06:59N 29°37' W 095°00'0 0.0
2018-May-22 06:29N 29°37' W 095°00'0 0.0
2018-May-22 05:59N 29°37' W 095°00'0 0.0
2018-May-22 05:30N 29°37' W 095°00'0 0.6
2018-May-22 05:00N 29°37' W 095°00'2 4.5
2018-May-22 04:30N 29°37' W 094°58'3 5.6
2018-May-22 04:00N 29°40' W 094°59'3 5.7
2018-May-22 03:30N 29°42' W 095°01'3 5.0
2018-May-22 02:59N 29°44' W 095°03'3 0.1
2018-May-21 03:16N 29°45' W 095°06'3 0.2
2018-May-20 10:03N 29°44' W 095°09'1 5.3
2018-May-20 09:53N 29°45' W 095°10'6 0.4
2018-May-19 20:10N 29°44' W 095°03'2 4.5
2018-May-19 19:42N 29°43' W 095°01'1 5.0
2018-May-19 19:30N 29°42' W 095°00'3 5.3
2018-May-19 19:00N 29°40' W 094°58'3 5.7
2018-May-19 18:30N 29°37' W 094°57'3 5.6
2018-May-19 18:01N 29°35' W 094°56'3 6.0
2018-May-19 17:30N 29°32' W 094°54'3 6.2
2018-May-19 17:01N 29°30' W 094°52'4 6.8
2018-May-19 16:29N 29°27' W 094°50'5 7.6
2018-May-19 15:49N 29°22' W 094°48'2 7.3
2018-May-19 15:29N 29°21' W 094°45'2 0.2
2018-May-19 06:53N 29°21' W 094°43'1 2.3
2018-May-19 06:25N 29°21' W 094°44'0 0.1
2018-May-19 01:06N 29°21' W 094°45'1 3.2
2018-May-19 00:46N 29°21' W 094°46'2 5.9
2018-May-19 00:29N 29°22' W 094°48'8 5.4
2018-May-18 22:58N 29°29' W 094°52'2 5.0
2018-May-18 22:30N 29°31' W 094°53'3 5.1
2018-May-18 22:00N 29°33' W 094°55'3 5.0
2018-May-18 21:30N 29°35' W 094°56'2 5.0
2018-May-18 21:00N 29°37' W 094°58'3 5.1
2018-May-18 20:30N 29°40' W 094°58'3 5.0
2018-May-18 20:00N 29°42' W 094°60'2 4.2
2018-May-18 19:26N 29°44' W 095°02'4 2.2
2018-May-18 17:46N 29°46' W 095°05'1 0.1
2018-May-18 10:33N 29°45' W 095°06'0 0.0
2018-May-18 10:24N 29°45' W 095°06'0 0.0
2018-May-18 09:51N 29°45' W 095°06'0 0.0
2018-May-18 09:24N 29°45' W 095°06'0 0.0
2018-May-18 08:36N 29°45' W 095°06'0 0.0
2018-May-18 08:27N 29°45' W 095°06'0 0.0
2018-May-18 08:00N 29°45' W 095°06'0 0.0
2018-May-18 07:30N 29°45' W 095°06'1 1.5
2018-May-18 07:00N 29°45' W 095°06'3 5.3
2018-May-18 06:30N 29°44' W 095°09'3 5.0
2018-May-18 06:00N 29°44' W 095°12'2 4.9
2018-May-18 05:30N 29°43' W 095°15'0 0.5
2018-May-18 04:59N 29°43' W 095°15'0 0.0
2018-May-18 04:26N 29°43' W 095°15'0 0.0
2018-May-18 04:00N 29°43' W 095°15'0 0.0
2018-May-18 03:28N 29°43' W 095°15'0 0.0
2018-May-18 02:53N 29°43' W 095°15'0 0.0
2018-May-18 02:30N 29°43' W 095°15'0 0.0
2018-May-17 22:40N 29°43' W 095°15'12 1.6
2018-May-17 15:11N 29°42' W 095°01'1 2.4
2018-May-17 14:58N 29°42' W 095°02'1 2.3
2018-May-17 14:25N 29°43' W 095°03'  
Track history (hours):
 
Tides and Currents Weather Stations Pressure Air Temp Water Temp Dewpoint Dewpoint Depression Visibility Wind Speed Wind Dir Waves Ship Positions

Lana Louise

Owner: Kirby Inland Marine LP, Houston, TX. More information available from US FCC via Universal Licensing System and Coast Guard Vessel Documentation Center.

Last reported at 2018-May-27 14:19 UTC. Time now 2018-May-28 01:36 UTC.
Position N 29°45' W 095°06'.

Length 97 m; draft 2.6 m.

Type: . MMSI: 366996580.

Date/timePositionNaut miles runAvg speedWind from/ knotsBaromVisibWave heightAir tempDewpointWater temp
2018-May-27 14:19N 29°45' W 095°06'0 0.0
2018-May-27 13:39N 29°45' W 095°06'0 0.2
2018-May-27 13:27N 29°45' W 095°06'2 3.1
2018-May-27 12:49N 29°45' W 095°04'4 4.5
2018-May-27 12:00N 29°42' W 095°01'3 5.2
2018-May-27 11:31N 29°41' W 094°59'3 5.3
2018-May-27 11:00N 29°38' W 094°58'3 5.5
2018-May-27 10:30N 29°36' W 094°57'3 5.7
2018-May-27 10:01N 29°33' W 094°55'3 5.8
2018-May-27 09:30N 29°31' W 094°53'9 6.4
2018-May-27 08:01N 29°22' W 094°48'1 6.7
2018-May-27 07:55N 29°22' W 094°48'2 5.4
2018-May-27 07:29N 29°21' W 094°45'1 0.9
2018-May-27 06:36N 29°21' W 094°44'0 0.0
2018-May-26 22:57N 29°21' W 094°44'1 1.6
2018-May-26 22:29N 29°21' W 094°44'0 0.0
2018-May-26 17:26N 29°21' W 094°44'0 0.0
2018-May-26 16:41N 29°21' W 094°44'0 0.0
2018-May-26 16:23N 29°21' W 094°44'0 0.0
2018-May-26 15:59N 29°21' W 094°44'0 0.0
2018-May-26 15:29N 29°21' W 094°44'0 0.0
2018-May-26 14:59N 29°21' W 094°44'0 0.6
2018-May-26 14:24N 29°21' W 094°44'2 5.2
2018-May-26 13:59N 29°21' W 094°46'2 5.1
2018-May-26 13:30N 29°23' W 094°49'6 4.8
2018-May-26 12:10N 29°29' W 094°52'1 4.5
2018-May-26 11:58N 29°30' W 094°52'2 4.6
2018-May-26 11:29N 29°31' W 094°53'2 4.5
2018-May-26 11:00N 29°33' W 094°55'2 4.8
2018-May-26 10:30N 29°35' W 094°56'2 4.8
2018-May-26 10:00N 29°37' W 094°58'2 4.7
2018-May-26 09:30N 29°40' W 094°58'2 4.6
2018-May-26 09:00N 29°42' W 094°60'4 4.3
2018-May-26 08:10N 29°44' W 095°03'3 0.2
2018-May-25 19:58N 29°45' W 095°06'0 0.0
2018-May-25 05:05N 29°45' W 095°06'0 0.1
2018-May-25 04:44N 29°45' W 095°06'2 3.5
2018-May-25 04:14N 29°47' W 095°05'2 0.4
2018-May-24 22:53N 29°46' W 095°07'1 0.0
2018-May-23 19:17N 29°46' W 095°06'0 0.0
2018-May-23 18:59N 29°46' W 095°06'2 0.4
2018-May-23 13:10N 29°44' W 095°08'1 5.2
2018-May-23 12:56N 29°44' W 095°09'1 0.2
2018-May-23 06:18N 29°45' W 095°10'0 0.1
2018-May-23 05:49N 29°45' W 095°10'1 1.7
2018-May-23 05:26N 29°45' W 095°11'1 1.6
2018-May-23 04:49N 29°45' W 095°10'8 1.0
2018-May-22 20:56N 29°42' W 095°01'3 5.8
2018-May-22 20:30N 29°41' W 094°59'3 5.4
2018-May-22 20:00N 29°38' W 094°58'2 3.3
2018-May-22 19:30N 29°37' W 094°59'1 2.7
2018-May-22 19:00N 29°37' W 095°00'0 0.0
2018-May-22 18:29N 29°37' W 095°00'0 0.0
2018-May-22 17:59N 29°37' W 095°00'0 0.0
2018-May-22 17:29N 29°37' W 095°00'0 0.0
2018-May-22 16:59N 29°37' W 095°00'0 0.0
2018-May-22 16:29N 29°37' W 095°00'0 0.0
2018-May-22 15:59N 29°37' W 095°00'0 0.0
2018-May-22 15:29N 29°37' W 095°00'0 0.0
2018-May-22 14:59N 29°37' W 095°00'0 0.0
2018-May-22 14:29N 29°37' W 095°00'0 0.0
2018-May-22 13:56N 29°37' W 095°00'0 0.0
2018-May-22 13:29N 29°37' W 095°00'0 0.0
2018-May-22 12:59N 29°37' W 095°00'0 0.0
2018-May-22 12:29N 29°37' W 095°00'0 0.0
2018-May-22 11:59N 29°37' W 095°00'0 0.0
2018-May-22 11:29N 29°37' W 095°00'0 0.0
2018-May-22 10:53N 29°37' W 095°00'0 0.0
2018-May-22 10:29N 29°37' W 095°00'0 0.0
2018-May-22 09:59N 29°37' W 095°00'0 0.0
2018-May-22 09:29N 29°37' W 095°00'0 0.0
2018-May-22 08:59N 29°37' W 095°00'0 0.0
2018-May-22 08:29N 29°37' W 095°00'0 0.0
2018-May-22 07:59N 29°37' W 095°00'0 0.0
2018-May-22 07:29N 29°37' W 095°00'0 0.0
2018-May-22 06:59N 29°37' W 095°00'0 0.0
2018-May-22 06:29N 29°37' W 095°00'0 0.0
2018-May-22 05:59N 29°37' W 095°00'0 0.0
2018-May-22 05:30N 29°37' W 095°00'0 0.6
2018-May-22 05:00N 29°37' W 095°00'2 4.5
2018-May-22 04:30N 29°37' W 094°58'3 5.6
2018-May-22 04:00N 29°40' W 094°59'3 5.7
2018-May-22 03:30N 29°42' W 095°01'3 5.0
2018-May-22 02:59N 29°44' W 095°03'3 0.1
2018-May-21 03:16N 29°45' W 095°06'3 0.2
2018-May-20 10:03N 29°44' W 095°09'1 5.3
2018-May-20 09:53N 29°45' W 095°10'6 0.4
2018-May-19 20:10N 29°44' W 095°03'2 4.5
2018-May-19 19:42N 29°43' W 095°01'1 5.0
2018-May-19 19:30N 29°42' W 095°00'3 5.3
2018-May-19 19:00N 29°40' W 094°58'3 5.7
2018-May-19 18:30N 29°37' W 094°57'3 5.6
2018-May-19 18:01N 29°35' W 094°56'3 6.0
2018-May-19 17:30N 29°32' W 094°54'3 6.2
2018-May-19 17:01N 29°30' W 094°52'4 6.8
2018-May-19 16:29N 29°27' W 094°50'5 7.6
2018-May-19 15:49N 29°22' W 094°48'2 7.3
2018-May-19 15:29N 29°21' W 094°45'2 0.2
2018-May-19 06:53N 29°21' W 094°43'1 2.3
2018-May-19 06:25N 29°21' W 094°44'0 0.1
2018-May-19 01:06N 29°21' W 094°45'1 3.2
2018-May-19 00:46N 29°21' W 094°46'2 5.9
2018-May-19 00:29N 29°22' W 094°48'8 5.4
2018-May-18 22:58N 29°29' W 094°52'2 5.0
2018-May-18 22:30N 29°31' W 094°53'3 5.1
2018-May-18 22:00N 29°33' W 094°55'3 5.0
2018-May-18 21:30N 29°35' W 094°56'2 5.0
2018-May-18 21:00N 29°37' W 094°58'3 5.1
2018-May-18 20:30N 29°40' W 094°58'3 5.0
2018-May-18 20:00N 29°42' W 094°60'2 4.2
2018-May-18 19:26N 29°44' W 095°02'4 2.2
2018-May-18 17:46N 29°46' W 095°05'1 0.1
2018-May-18 10:33N 29°45' W 095°06'0 0.0
2018-May-18 10:24N 29°45' W 095°06'0 0.0
2018-May-18 09:51N 29°45' W 095°06'0 0.0
2018-May-18 09:24N 29°45' W 095°06'0 0.0
2018-May-18 08:36N 29°45' W 095°06'0 0.0
2018-May-18 08:27N 29°45' W 095°06'0 0.0
2018-May-18 08:00N 29°45' W 095°06'0 0.0
2018-May-18 07:30N 29°45' W 095°06'1 1.5
2018-May-18 07:00N 29°45' W 095°06'3 5.3
2018-May-18 06:30N 29°44' W 095°09'3 5.0
2018-May-18 06:00N 29°44' W 095°12'2 4.9
2018-May-18 05:30N 29°43' W 095°15'0 0.5
2018-May-18 04:59N 29°43' W 095°15'0 0.0
2018-May-18 04:26N 29°43' W 095°15'0 0.0
2018-May-18 04:00N 29°43' W 095°15'0 0.0
2018-May-18 03:28N 29°43' W 095°15'0 0.0
2018-May-18 02:53N 29°43' W 095°15'0 0.0
2018-May-18 02:30N 29°43' W 095°15'0 0.0
2018-May-17 22:40N 29°43' W 095°15'12 1.6
2018-May-17 15:11N 29°42' W 095°01'1 2.4
2018-May-17 14:58N 29°42' W 095°02'1 2.3
2018-May-17 14:25N 29°43' W 095°03'  

Dump ship's entire track history